Millersburg, Indiana
Current Conditions -  °F | °C
As of 4:12 PM on Monday 22 Dec 2014 (Local Time) from KGSH Reporting Station
Haze Haze  
Wind Chill: 28°   Ceiling: 2000
Heat Index: 36°   Visibility: 4mi
Dew Point: 33°   Wind: 13mph
Humidity: 89%   Direction: 110°ESE
Pressure: 29.81"   Gusts: NA
Location:  41.53°N, 85.69°W
Report Text: KGSH 222112Z AUTO 11011KT 4SM BR BKN020 BKN029 OVC039 02/01 A2981 RMK AO2 T00220006
Loading
Personal Weather Stations






























Interactive Weather Map New forecast layout! Learn more

10-Day Weather Forecast

Advertisements
Track Severe Weather on mobile